createdAt,value
2023-02-03T01:14:08.110Z,75.30
2023-02-03T01:18:12.483Z,75.30
2023-02-03T01:22:15.254Z,75.30
2023-02-03T01:26:20.647Z,75.40
2023-02-03T01:30:23.970Z,75.30
2023-02-03T01:34:26.823Z,75.10
2023-02-03T01:38:29.524Z,75.10
2023-02-03T01:42:33.972Z,75.20
2023-02-03T01:46:48.444Z,75.30
2023-02-03T01:50:51.362Z,75.30
2023-02-03T01:54:56.847Z,75.30
2023-02-03T01:59:00.984Z,75.40
2023-02-03T02:03:05.973Z,75.50
2023-02-03T02:07:10.146Z,75.30
2023-02-03T02:11:16.217Z,75.40
2023-02-03T02:15:24.724Z,75.40
2023-02-03T02:19:53.277Z,75.50
2023-02-03T02:24:11.363Z,75.90
2023-02-03T02:28:34.467Z,75.90
2023-02-03T02:32:37.579Z,75.80
2023-02-03T02:37:00.776Z,75.70
2023-02-03T02:41:13.563Z,75.90
2023-02-03T02:45:26.698Z,75.90
2023-02-03T02:49:39.837Z,75.80
2023-02-03T02:54:00.726Z,75.70
2023-02-03T02:58:11.570Z,75.90
2023-02-03T03:02:14.962Z,75.90
2023-02-03T03:06:48.348Z,75.80
2023-02-03T03:10:53.540Z,76.10
2023-02-03T03:15:08.237Z,76.10
2023-02-03T03:19:17.397Z,76.10
2023-02-03T03:23:33.632Z,76.10
2023-02-03T03:27:41.828Z,76.30
2023-02-03T03:31:45.592Z,76.10
2023-02-03T03:36:20.211Z,75.90
2023-02-03T03:40:29.481Z,75.90
2023-02-03T03:44:40.104Z,75.80
2023-02-03T03:49:00.394Z,75.90
2023-02-03T03:53:06.964Z,75.90
2023-02-03T03:57:19.098Z,75.90
2023-02-03T04:01:23.851Z,76.10
2023-02-03T04:05:27.859Z,76.10
2023-02-03T04:09:30.699Z,76.00
2023-02-03T04:13:33.486Z,76.10
2023-02-03T04:17:36.776Z,76.30
2023-02-03T04:21:39.943Z,76.40
2023-02-03T04:25:42.659Z,76.40
2023-02-03T04:29:47.728Z,76.20
2023-02-03T04:33:50.487Z,76.20
2023-02-03T04:37:53.446Z,76.30
2023-02-03T04:41:56.354Z,76.30
2023-02-03T04:46:01.096Z,76.30
2023-02-03T04:50:04.208Z,76.20
2023-02-03T04:54:07.546Z,76.10
2023-02-03T04:58:10.270Z,76.10
2023-02-03T05:02:13.005Z,76.00
2023-02-03T05:06:15.760Z,76.10
2023-02-03T05:10:21.995Z,76.10
2023-02-03T05:14:24.655Z,76.10
2023-02-03T05:18:27.808Z,76.30
2023-02-03T05:22:30.534Z,76.40
2023-02-03T05:26:34.494Z,76.30
2023-02-03T05:30:37.407Z,76.30
2023-02-03T05:34:42.408Z,76.40
2023-02-03T05:38:45.187Z,76.40
2023-02-03T05:42:51.431Z,76.40
2023-02-03T05:46:57.033Z,76.40
2023-02-03T05:51:01.715Z,76.30
2023-02-03T05:55:05.441Z,76.30
2023-02-03T05:59:08.129Z,76.30
2023-02-03T06:03:11.016Z,76.40
2023-02-03T06:07:14.780Z,76.30
2023-02-03T06:11:17.753Z,76.30
2023-02-03T06:15:20.521Z,76.40
2023-02-03T06:19:23.806Z,76.40
2023-02-03T06:23:26.825Z,76.60
2023-02-03T06:27:29.675Z,76.50
2023-02-03T06:31:32.463Z,76.50
2023-02-03T06:35:35.787Z,76.60
2023-02-03T06:39:38.555Z,76.50
2023-02-03T06:43:41.442Z,76.30
2023-02-03T06:47:45.545Z,76.20
2023-02-03T06:51:48.765Z,76.30
2023-02-03T06:55:52.032Z,76.50
2023-02-03T06:59:55.156Z,76.60
2023-02-03T07:03:58.966Z,76.50
2023-02-03T07:08:01.713Z,76.50
2023-02-03T07:12:05.295Z,76.60
2023-02-03T07:16:08.149Z,76.80
2023-02-03T07:20:11.420Z,76.70
2023-02-03T07:24:14.684Z,76.70
2023-02-03T07:28:17.662Z,76.80
2023-02-03T07:32:20.679Z,76.90
2023-02-03T07:36:24.392Z,76.80
2023-02-03T07:40:27.472Z,76.80
2023-02-03T07:44:30.423Z,76.60
2023-02-03T07:48:33.251Z,76.60
2023-02-03T07:52:36.075Z,76.50
2023-02-03T07:56:38.862Z,76.50
2023-02-03T08:00:41.653Z,76.40
2023-02-03T08:04:44.622Z,76.60
2023-02-03T08:08:47.572Z,76.60
2023-02-03T08:12:53.767Z,76.70
2023-02-03T08:16:56.679Z,76.60
2023-02-03T08:20:59.487Z,76.40
2023-02-03T08:25:02.509Z,76.30
2023-02-03T08:29:05.559Z,76.20
2023-02-03T08:33:08.418Z,76.40
2023-02-03T08:37:12.835Z,76.40
2023-02-03T08:41:18.434Z,76.30
2023-02-03T08:45:22.421Z,76.60
2023-02-03T08:49:27.852Z,76.30
2023-02-03T08:53:30.603Z,76.70
2023-02-03T08:57:35.045Z,76.80
2023-02-03T09:01:37.813Z,76.70
2023-02-03T09:05:41.519Z,76.70
2023-02-03T09:09:44.559Z,76.80
2023-02-03T09:13:48.660Z,76.70
2023-02-03T09:17:51.409Z,76.60
2023-02-03T09:21:54.259Z,76.60
2023-02-03T09:26:05.231Z,76.40
2023-02-03T09:30:08.416Z,76.30
2023-02-03T09:34:11.311Z,76.20
2023-02-03T09:38:14.164Z,76.00
2023-02-03T09:42:59.848Z,75.70
2023-02-03T09:47:26.959Z,75.40
2023-02-03T09:51:55.285Z,75.00
2023-02-03T09:55:59.669Z,74.40
2023-02-03T10:00:10.542Z,74.30
2023-02-03T10:04:27.888Z,74.00
2023-02-03T10:08:47.113Z,74.00
2023-02-03T10:13:04.934Z,73.40
2023-02-03T10:17:20.978Z,73.00
2023-02-03T10:21:42.996Z,72.80
2023-02-03T10:25:57.281Z,72.20
2023-02-03T10:30:28.185Z,72.00
2023-02-03T10:34:31.345Z,71.90
2023-02-03T10:38:53.080Z,72.00
2023-02-03T10:43:14.704Z,71.80
2023-02-03T10:47:36.335Z,71.40
2023-02-03T10:51:50.393Z,71.30
2023-02-03T10:56:02.020Z,71.10
2023-02-03T11:00:09.451Z,70.60
2023-02-03T11:04:32.032Z,70.60
2023-02-03T11:08:36.854Z,70.10
2023-02-03T11:12:39.630Z,70.30
2023-02-03T11:16:44.617Z,70.40
2023-02-03T11:20:47.525Z,69.80
2023-02-03T11:24:50.306Z,69.50
2023-02-03T11:28:56.478Z,69.30
2023-02-03T11:33:03.171Z,68.50
2023-02-03T11:37:24.174Z,67.20
2023-02-03T11:41:36.539Z,66.30
2023-02-03T11:45:45.823Z,66.60
2023-02-03T11:49:51.606Z,66.60
2023-02-03T11:54:28.615Z,66.40
2023-02-03T11:58:31.436Z,66.50
2023-02-03T12:02:40.241Z,66.10
2023-02-03T12:07:04.691Z,64.80
2023-02-03T12:11:47.002Z,64.10
2023-02-03T12:16:01.705Z,63.60
2023-02-03T12:20:23.290Z,62.60
2023-02-03T12:24:29.057Z,62.50
2023-02-03T12:28:50.596Z,62.60
2023-02-03T12:33:00.639Z,62.80
2023-02-03T12:37:36.849Z,62.50
2023-02-03T12:41:48.031Z,62.40
2023-02-03T12:45:58.303Z,62.90
2023-02-03T12:50:13.510Z,62.50
2023-02-03T12:54:34.951Z,63.10
2023-02-03T12:58:42.137Z,63.30
2023-02-03T13:03:04.157Z,63.60
2023-02-03T13:07:24.820Z,62.90
2023-02-03T13:11:53.123Z,62.40
2023-02-03T13:15:58.681Z,63.00
2023-02-03T13:20:10.168Z,63.10
2023-02-03T13:24:13.358Z,63.20
2023-02-03T13:28:28.130Z,63.00
2023-02-03T13:32:59.390Z,62.50
2023-02-03T13:37:31.906Z,62.70
2023-02-03T13:41:48.355Z,62.80
2023-02-03T13:45:53.352Z,62.60
2023-02-03T13:50:01.291Z,62.30
2023-02-03T13:54:14.403Z,61.70
2023-02-03T13:58:24.485Z,61.60
2023-02-03T14:02:27.511Z,61.00
2023-02-03T14:06:39.099Z,61.10
2023-02-03T14:10:42.368Z,60.80
2023-02-03T14:14:51.301Z,60.80
2023-02-03T14:18:56.610Z,60.60
2023-02-03T14:23:05.118Z,60.60
2023-02-03T14:27:24.739Z,60.50
2023-02-03T14:31:28.845Z,60.10
2023-02-03T14:35:42.424Z,60.50
2023-02-03T14:39:57.258Z,60.00
2023-02-03T14:44:15.816Z,60.30
2023-02-03T14:48:37.299Z,59.80
2023-02-03T14:52:57.599Z,59.80
2023-02-03T14:57:49.129Z,59.50
2023-02-03T15:01:51.984Z,59.50
2023-02-03T15:06:01.665Z,59.50
2023-02-03T15:10:13.215Z,59.80
2023-02-03T15:14:32.523Z,60.00
2023-02-03T15:18:36.715Z,60.20
2023-02-03T15:22:40.279Z,60.60
2023-02-03T15:26:51.534Z,60.90
2023-02-03T15:31:21.370Z,61.00
2023-02-03T15:35:27.780Z,61.20
2023-02-03T15:40:01.339Z,61.40
2023-02-03T15:44:12.649Z,61.50
2023-02-03T15:48:23.133Z,62.00
2023-02-03T15:52:29.069Z,62.40
2023-02-03T15:56:43.674Z,62.60
2023-02-03T16:00:52.620Z,62.80
2023-02-03T16:04:55.618Z,63.10
2023-02-03T16:08:59.724Z,63.30
2023-02-03T16:13:22.901Z,63.50
2023-02-03T16:17:37.115Z,63.70
2023-02-03T16:21:49.691Z,64.10
2023-02-03T16:26:05.962Z,64.50
2023-02-03T16:30:30.184Z,64.80
2023-02-03T16:34:51.388Z,65.10
2023-02-03T16:39:12.441Z,65.40
2023-02-03T16:43:35.068Z,65.90
2023-02-03T16:47:57.860Z,66.10
2023-02-03T16:52:01.618Z,66.40
2023-02-03T16:56:05.310Z,66.60
2023-02-03T17:00:11.799Z,67.00
2023-02-03T17:04:14.454Z,67.10
2023-02-03T17:08:19.176Z,67.40
2023-02-03T17:12:21.940Z,67.70
2023-02-03T17:16:26.833Z,67.90
2023-02-03T17:20:29.722Z,68.10
2023-02-03T17:24:32.787Z,68.40
2023-02-03T17:28:36.443Z,68.60
2023-02-03T17:32:39.222Z,68.70
2023-02-03T17:36:41.886Z,68.90
2023-02-03T17:53:49.402Z,69.20
2023-02-03T17:57:52.135Z,69.20
2023-02-03T18:01:55.865Z,69.20
2023-02-03T18:06:15.649Z,69.10
2023-02-03T18:10:18.437Z,69.10
2023-02-03T18:14:21.138Z,69.20
2023-02-03T18:18:25.989Z,69.40
2023-02-03T18:22:34.691Z,69.40
2023-02-03T18:26:50.978Z,69.80
2023-02-03T18:31:09.682Z,70.10
2023-02-03T18:35:19.816Z,70.20
2023-02-03T18:39:22.547Z,70.20
2023-02-03T18:43:25.334Z,70.50
2023-02-03T18:47:28.355Z,70.60
2023-02-03T18:51:31.185Z,70.80
2023-02-03T18:55:34.162Z,71.20
2023-02-03T18:59:37.113Z,71.50
2023-02-03T19:03:40.229Z,71.90
2023-02-03T19:07:42.864Z,72.10
2023-02-03T19:11:45.973Z,72.10
2023-02-03T19:15:49.503Z,72.40
2023-02-03T19:19:52.601Z,72.70
2023-02-03T19:23:55.940Z,72.70
2023-02-03T19:27:58.679Z,72.70
2023-02-03T19:32:01.543Z,72.70
2023-02-03T19:36:07.877Z,72.70
2023-02-03T19:40:11.416Z,72.80
2023-02-03T19:44:14.616Z,72.90
2023-02-03T19:48:17.280Z,73.10
2023-02-03T19:52:19.966Z,73.10
2023-02-03T19:56:22.759Z,73.00
2023-02-03T20:00:26.603Z,73.00
2023-02-03T20:04:29.863Z,73.00
2023-02-03T20:08:32.640Z,72.80
2023-02-03T20:12:35.377Z,72.70
2023-02-03T20:16:38.360Z,72.80
2023-02-03T20:20:41.386Z,72.90
2023-02-03T20:24:44.241Z,72.90
2023-02-03T20:28:47.804Z,73.10
2023-02-03T20:32:50.566Z,72.90
2023-02-03T20:36:55.937Z,72.80
2023-02-03T20:40:58.941Z,72.70
2023-02-03T20:45:02.033Z,72.80
2023-02-03T20:49:05.998Z,72.90
2023-02-03T20:53:14.042Z,72.90
2023-02-03T20:57:19.317Z,73.10
2023-02-03T21:01:22.828Z,73.10
2023-02-03T21:05:28.153Z,73.20
2023-02-03T21:09:30.924Z,73.20
2023-02-03T21:13:36.328Z,73.20
2023-02-03T21:17:39.482Z,73.20
2023-02-03T21:21:42.616Z,73.40
2023-02-03T21:25:45.853Z,73.40
2023-02-03T21:29:50.372Z,73.40
2023-02-03T21:33:55.146Z,73.20
2023-02-03T21:38:02.408Z,73.10
2023-02-03T21:42:41.437Z,73.00
2023-02-03T21:46:44.275Z,73.10
2023-02-03T21:50:47.074Z,73.30
2023-02-03T21:54:49.818Z,73.70
2023-02-03T21:58:55.285Z,73.80
2023-02-03T22:03:00.650Z,74.00
2023-02-03T22:07:15.333Z,74.10
2023-02-03T22:11:19.715Z,74.40
2023-02-03T22:15:22.545Z,74.70
2023-02-03T22:19:25.826Z,74.80
2023-02-03T22:23:29.002Z,74.70
2023-02-03T22:27:32.662Z,74.50
2023-02-03T22:31:35.535Z,74.50
2023-02-03T22:35:38.324Z,74.50
2023-02-03T22:39:41.139Z,74.50
2023-02-03T22:43:44.003Z,74.50
2023-02-03T22:47:46.738Z,74.40
2023-02-03T22:51:49.437Z,74.40
2023-02-03T22:55:52.317Z,74.30
2023-02-03T22:59:55.021Z,74.30
2023-02-03T23:03:57.709Z,74.30
2023-02-03T23:08:01.145Z,74.20
2023-02-03T23:12:04.205Z,74.20
2023-02-03T23:16:07.104Z,74.10
2023-02-03T23:20:12.297Z,74.00
2023-02-03T23:24:17.381Z,74.20
2023-02-03T23:28:20.281Z,74.10
2023-02-03T23:32:23.467Z,74.20
2023-02-03T23:36:26.326Z,74.20
2023-02-03T23:40:29.644Z,74.20
2023-02-03T23:44:32.550Z,74.20
2023-02-03T23:48:35.311Z,74.40
2023-02-03T23:52:38.163Z,74.50
2023-02-03T23:56:40.954Z,74.50
